RJFZ(METAR)
08/13 13:00
METAR RJFZ 130400Z 24008KT 210V280 9999 FEW025 BKN040 36/26 Q1012
RMK 1CU025 5CU040 A2988=
戻る
トップページへ戻る
IMOC Co,.Ltd.